createdAt,value
2023-11-16T00:00:37.524Z,3.58
2023-11-16T00:03:07.676Z,3.35
2023-11-16T00:05:37.439Z,2.97
2023-11-16T00:08:08.556Z,2.67
2023-11-16T00:10:38.324Z,4.28
2023-11-16T00:13:06.520Z,4.20
2023-11-16T00:15:34.357Z,2.80
2023-11-16T00:18:05.660Z,2.80
2023-11-16T00:20:33.655Z,4.55
2023-11-16T00:23:00.760Z,4.93
2023-11-16T00:25:27.528Z,3.50
2023-11-16T00:27:54.204Z,3.55
2023-11-16T00:30:20.802Z,2.95
2023-11-16T00:32:47.367Z,4.50
2023-11-16T00:35:13.965Z,5.05
2023-11-16T00:37:40.523Z,4.15
2023-11-16T00:40:08.621Z,3.35
2023-11-16T00:42:38.050Z,3.25
2023-11-16T00:45:05.131Z,3.50
2023-11-16T00:47:31.734Z,3.55
2023-11-16T00:52:25.849Z,3.55
2023-11-16T00:54:52.414Z,2.85
2023-11-16T00:59:50.112Z,2.88
2023-11-16T01:02:16.787Z,3.20
2023-11-16T01:04:43.360Z,3.05
2023-11-16T01:09:38.228Z,2.72
2023-11-16T01:12:05.968Z,2.35
2023-11-16T01:14:32.627Z,4.22
2023-11-16T01:17:09.048Z,4.00
2023-11-16T01:19:38.552Z,2.75
2023-11-16T01:22:05.248Z,3.03
2023-11-16T01:24:36.478Z,3.30
2023-11-16T01:27:16.493Z,3.55
2023-11-16T01:29:46.984Z,3.33
2023-11-16T01:32:14.687Z,3.40
2023-11-16T01:34:43.660Z,3.30
2023-11-16T01:37:11.364Z,2.60
2023-11-16T01:39:41.153Z,2.55
2023-11-16T01:42:09.241Z,2.53
2023-11-16T01:44:36.457Z,5.97
2023-11-16T01:47:04.551Z,3.25
2023-11-16T01:49:31.584Z,2.42
2023-11-16T01:51:58.740Z,2.95
2023-11-16T01:54:25.619Z,2.30
2023-11-16T01:56:52.662Z,3.22
2023-11-16T01:59:20.778Z,3.25
2023-11-16T02:01:47.948Z,2.30
2023-11-16T02:04:15.763Z,2.13
2023-11-16T02:06:42.916Z,3.28
2023-11-16T02:09:11.277Z,4.07
2023-11-16T02:11:38.413Z,2.35
2023-11-16T02:14:05.451Z,3.17
2023-11-16T02:16:32.598Z,3.47
2023-11-16T02:19:06.126Z,3.08
2023-11-16T02:21:39.857Z,3.63
2023-11-16T02:24:08.184Z,3.92
2023-11-16T02:26:34.884Z,3.65
2023-11-16T02:29:01.374Z,2.20
2023-11-16T02:34:05.386Z,2.55
2023-11-16T02:39:01.533Z,2.88
2023-11-16T02:41:30.431Z,2.42
2023-11-16T02:43:56.959Z,3.30
2023-11-16T02:48:49.952Z,2.25
2023-11-16T02:53:44.753Z,2.85
2023-11-16T02:56:14.402Z,3.08
2023-11-16T02:58:44.940Z,2.97
2023-11-16T03:01:14.368Z,3.33
2023-11-16T03:03:41.787Z,2.47
2023-11-16T03:06:09.835Z,4.43
2023-11-16T03:08:37.019Z,2.33
2023-11-16T03:11:06.852Z,3.67
2023-11-16T03:13:33.488Z,2.40
2023-11-16T03:15:59.969Z,2.85
2023-11-16T03:20:54.226Z,2.10
2023-11-16T03:23:20.817Z,2.10
2023-11-16T03:25:47.678Z,2.20
2023-11-16T03:28:14.438Z,2.50
2023-11-16T03:30:41.245Z,2.90
2023-11-16T03:33:12.889Z,3.28
2023-11-16T03:35:40.330Z,3.20
2023-11-16T03:38:06.968Z,2.40
2023-11-16T03:40:34.121Z,2.40
2023-11-16T03:43:00.636Z,2.53
2023-11-16T03:47:53.728Z,2.40
2023-11-16T03:50:20.335Z,2.55
2023-11-16T03:55:14.239Z,3.08
2023-11-16T03:57:41.408Z,3.40
2023-11-16T04:00:09.181Z,3.33
2023-11-16T04:02:37.020Z,4.03
2023-11-16T04:05:06.196Z,2.95
2023-11-16T04:07:35.663Z,3.70
2023-11-16T04:10:05.276Z,2.80
2023-11-16T04:12:32.013Z,3.25
2023-11-16T04:14:59.154Z,2.60
2023-11-16T04:17:27.563Z,2.47
2023-11-16T04:19:54.477Z,5.35
2023-11-16T04:24:53.115Z,2.58
2023-11-16T04:27:20.675Z,2.58
2023-11-16T04:29:47.808Z,1.95
2023-11-16T04:32:15.972Z,3.05
2023-11-16T04:34:43.475Z,4.30
2023-11-16T04:37:11.752Z,4.07
2023-11-16T04:39:38.550Z,3.10
2023-11-16T04:42:05.367Z,3.88
2023-11-16T04:44:35.511Z,3.20
2023-11-16T04:47:02.554Z,5.22
2023-11-16T04:49:29.295Z,2.95
2023-11-16T04:51:55.856Z,2.78
2023-11-16T04:56:49.125Z,3.58
2023-11-16T05:01:42.021Z,2.42
2023-11-16T05:04:09.234Z,3.03
2023-11-16T05:06:40.750Z,2.70
2023-11-16T05:09:07.278Z,2.92
2023-11-16T05:11:34.075Z,3.70
2023-11-16T05:14:00.553Z,3.38
2023-11-16T05:18:55.371Z,3.53
2023-11-16T05:21:22.409Z,2.97
2023-11-16T05:23:49.271Z,2.50
2023-11-16T05:26:17.908Z,2.22
2023-11-16T05:28:44.727Z,3.83
2023-11-16T05:31:11.340Z,3.17
2023-11-16T05:33:39.436Z,2.40
2023-11-16T05:36:07.438Z,2.50
2023-11-16T05:38:34.108Z,3.00
2023-11-16T05:41:00.645Z,3.45
2023-11-16T05:45:53.633Z,3.78
2023-11-16T05:50:48.057Z,5.28
2023-11-16T05:53:15.046Z,2.90
2023-11-16T05:55:41.609Z,3.22
2023-11-16T06:00:38.770Z,3.65
2023-11-16T06:03:07.015Z,4.72
2023-11-16T06:05:35.155Z,5.13
2023-11-16T06:08:01.779Z,4.30
2023-11-16T06:12:58.675Z,3.55
2023-11-16T06:15:26.475Z,3.25
2023-11-16T06:17:56.330Z,4.10
2023-11-16T06:20:23.094Z,5.85
2023-11-16T06:25:18.309Z,4.95
2023-11-16T06:27:46.388Z,3.40
2023-11-16T06:30:14.521Z,6.78
2023-11-16T06:32:41.621Z,2.97
2023-11-16T06:35:11.253Z,3.28
2023-11-16T06:37:38.792Z,6.35
2023-11-16T06:40:06.441Z,5.75
2023-11-16T06:42:34.088Z,7.20
2023-11-16T06:45:05.350Z,4.47
2023-11-16T06:47:33.299Z,6.10
2023-11-16T06:50:00.184Z,5.57
2023-11-16T06:52:28.250Z,37.00
2023-11-16T06:54:57.533Z,17.52
2023-11-16T06:57:24.098Z,8.13
2023-11-16T07:02:22.447Z,12.05
2023-11-16T07:04:52.003Z,7.68
2023-11-16T07:07:18.797Z,4.63
2023-11-16T07:09:47.337Z,5.47
2023-11-16T07:12:16.028Z,4.45
2023-11-16T07:14:48.100Z,4.18
2023-11-16T07:17:20.360Z,3.33
2023-11-16T07:19:48.699Z,3.20
2023-11-16T07:22:15.505Z,5.90
2023-11-16T07:24:45.913Z,2.92
2023-11-16T07:27:13.574Z,3.50
2023-11-16T07:29:42.390Z,4.22
2023-11-16T07:32:09.014Z,5.50
2023-11-16T07:34:38.730Z,4.05
2023-11-16T07:37:05.252Z,5.35
2023-11-16T07:42:00.403Z,4.55
2023-11-16T07:44:26.948Z,3.88
2023-11-16T07:49:20.954Z,5.18
2023-11-16T07:51:48.705Z,4.35
2023-11-16T07:54:16.894Z,3.80
2023-11-16T07:56:51.163Z,11.55
2023-11-16T07:59:19.980Z,4.22
2023-11-16T08:01:56.961Z,5.53
2023-11-16T08:04:26.863Z,3.33
2023-11-16T08:06:57.728Z,3.97
2023-11-16T08:09:25.810Z,3.20
2023-11-16T08:11:55.508Z,5.13
2023-11-16T08:14:26.098Z,6.38
2023-11-16T08:16:57.011Z,4.53
2023-11-16T08:19:24.245Z,3.00
2023-11-16T08:21:51.039Z,5.82
2023-11-16T08:24:19.340Z,3.45
2023-11-16T08:26:45.868Z,3.03
2023-11-16T08:31:39.436Z,3.00
2023-11-16T08:34:05.988Z,4.82
2023-11-16T08:38:59.807Z,4.10
2023-11-16T08:41:27.199Z,4.82
2023-11-16T08:43:53.722Z,5.50
2023-11-16T08:48:52.987Z,3.58
2023-11-16T08:51:24.296Z,4.20
2023-11-16T08:53:58.401Z,4.28
2023-11-16T08:56:34.854Z,4.05
2023-11-16T08:59:09.102Z,4.78
2023-11-16T09:01:40.124Z,4.90
2023-11-16T09:04:10.585Z,2.92
2023-11-16T09:06:37.480Z,3.45
2023-11-16T09:09:11.000Z,4.85
2023-11-16T09:11:37.824Z,4.25
2023-11-16T09:14:05.564Z,4.55
2023-11-16T09:16:34.415Z,4.65
2023-11-16T09:19:01.459Z,4.13
2023-11-16T09:21:30.715Z,3.75
2023-11-16T09:23:57.550Z,4.88
2023-11-16T09:26:25.145Z,6.72
2023-11-16T09:29:01.366Z,4.43
2023-11-16T09:31:34.651Z,3.67
2023-11-16T09:34:04.779Z,3.38
2023-11-16T09:36:31.490Z,2.97
2023-11-16T09:38:58.644Z,3.42
2023-11-16T09:41:28.430Z,3.55
2023-11-16T09:44:06.609Z,3.50
2023-11-16T09:46:34.032Z,4.10
2023-11-16T09:49:07.316Z,2.88
2023-11-16T09:51:37.020Z,2.60
2023-11-16T09:54:09.620Z,3.22
2023-11-16T09:56:41.624Z,3.08
2023-11-16T09:59:14.661Z,2.97
2023-11-16T10:01:46.176Z,3.28
2023-11-16T10:04:15.787Z,2.85
2023-11-16T10:06:49.625Z,2.30
2023-11-16T10:09:16.662Z,4.28
2023-11-16T10:11:43.527Z,3.13
2023-11-16T10:14:10.301Z,3.83
2023-11-16T10:16:36.821Z,3.25
2023-11-16T10:19:07.568Z,3.38
2023-11-16T10:21:35.311Z,2.17
2023-11-16T10:24:10.216Z,1.58
2023-11-16T10:26:37.009Z,3.25
2023-11-16T10:29:03.533Z,2.65
2023-11-16T10:34:06.120Z,3.80
2023-11-16T10:36:33.717Z,2.53
2023-11-16T10:39:02.312Z,2.65
2023-11-16T10:41:30.799Z,3.92
2023-11-16T10:43:59.149Z,3.60
2023-11-16T10:46:28.744Z,3.85
2023-11-16T10:48:55.473Z,2.83
2023-11-16T10:51:25.520Z,2.90
2023-11-16T10:53:54.921Z,3.83
2023-11-16T10:56:22.607Z,1.90
2023-11-16T10:58:51.791Z,2.63
2023-11-16T11:01:20.190Z,4.88
2023-11-16T11:03:48.986Z,3.58
2023-11-16T11:06:20.473Z,3.78
2023-11-16T11:08:49.446Z,3.10
2023-11-16T11:11:25.734Z,3.30
2023-11-16T11:13:56.131Z,2.60
2023-11-16T11:16:26.664Z,3.60
2023-11-16T11:18:54.317Z,4.53
2023-11-16T11:21:25.020Z,2.60
2023-11-16T11:24:10.546Z,4.90
2023-11-16T11:29:13.671Z,6.10
2023-11-16T11:31:52.008Z,3.85
2023-11-16T11:34:19.017Z,5.07
2023-11-16T11:36:45.784Z,3.50
2023-11-16T11:39:18.355Z,2.60
2023-11-16T11:42:00.596Z,4.28
2023-11-16T11:44:28.061Z,4.18
2023-11-16T11:46:58.525Z,5.22
2023-11-16T11:49:26.356Z,5.13
2023-11-16T11:51:54.321Z,7.63
2023-11-16T11:54:21.004Z,2.75
2023-11-16T11:56:48.091Z,5.88
2023-11-16T11:59:15.183Z,5.35
2023-11-16T12:01:41.892Z,4.38
2023-11-16T12:04:16.330Z,4.18
2023-11-16T12:06:46.247Z,3.03
2023-11-16T12:09:13.326Z,3.35
2023-11-16T12:11:41.199Z,4.85
2023-11-16T12:14:10.707Z,4.10
2023-11-16T12:16:38.829Z,2.75
2023-11-16T12:19:10.026Z,3.53
2023-11-16T12:21:40.786Z,3.38
2023-11-16T12:24:09.836Z,2.13
2023-11-16T12:26:37.004Z,5.20
2023-11-16T12:29:16.518Z,3.13
2023-11-16T12:31:45.153Z,6.28
2023-11-16T12:34:13.372Z,3.47
2023-11-16T12:36:45.634Z,4.57
2023-11-16T12:39:14.887Z,3.13
2023-11-16T12:41:42.097Z,4.78
2023-11-16T12:44:08.706Z,5.90
2023-11-16T12:46:36.784Z,4.53
2023-11-16T12:49:03.493Z,2.42
2023-11-16T12:51:30.518Z,4.40
2023-11-16T12:53:57.162Z,4.03
2023-11-16T12:56:23.671Z,2.35
2023-11-16T13:01:17.087Z,2.58
2023-11-16T13:03:50.214Z,2.92
2023-11-16T13:06:19.983Z,3.30
2023-11-16T13:08:46.570Z,3.10
2023-11-16T13:11:14.530Z,3.42
2023-11-16T13:13:41.335Z,3.15
2023-11-16T13:16:10.016Z,2.92
2023-11-16T13:18:36.913Z,4.10
2023-11-16T13:21:11.498Z,2.10
2023-11-16T13:23:42.995Z,2.53
2023-11-16T13:26:10.597Z,3.53
2023-11-16T13:28:38.262Z,4.20
2023-11-16T13:31:05.535Z,2.55
2023-11-16T13:33:33.101Z,2.08
2023-11-16T13:36:00.905Z,1.75
2023-11-16T13:38:29.536Z,2.22
2023-11-16T13:40:56.345Z,3.38
2023-11-16T13:43:22.903Z,3.28
2023-11-16T13:45:49.524Z,5.60
2023-11-16T13:48:18.488Z,9.27
2023-11-16T13:50:45.052Z,2.97
2023-11-16T13:53:11.697Z,4.03
2023-11-16T13:55:38.248Z,3.05
2023-11-16T13:58:05.501Z,5.03
2023-11-16T14:00:33.570Z,7.13
2023-11-16T14:03:00.627Z,4.85
2023-11-16T14:05:27.298Z,3.83
2023-11-16T14:07:57.057Z,6.10
2023-11-16T14:10:24.999Z,6.13
2023-11-16T14:12:56.136Z,7.03
2023-11-16T14:15:24.150Z,5.53
2023-11-16T14:17:51.035Z,7.13
2023-11-16T14:20:18.209Z,4.97
2023-11-16T14:22:45.738Z,9.20
2023-11-16T14:25:12.491Z,7.28
2023-11-16T14:27:39.265Z,6.15
2023-11-16T14:30:06.448Z,10.27
2023-11-16T14:32:33.088Z,7.25
2023-11-16T14:35:13.896Z,4.95
2023-11-16T14:37:46.180Z,6.20
2023-11-16T14:40:13.401Z,9.45
2023-11-16T14:42:40.197Z,7.82
2023-11-16T14:45:07.513Z,10.02
2023-11-16T14:47:39.511Z,23.58
2023-11-16T14:50:10.114Z,9.57
2023-11-16T14:52:37.972Z,7.43
2023-11-16T14:55:08.613Z,7.32
2023-11-16T14:57:39.057Z,8.00
2023-11-16T15:00:10.015Z,5.22
2023-11-16T15:02:37.355Z,8.13
2023-11-16T15:05:09.877Z,12.43
2023-11-16T15:07:39.152Z,10.07
2023-11-16T15:10:08.725Z,7.22
2023-11-16T15:12:36.235Z,8.35
2023-11-16T15:15:03.053Z,8.35
2023-11-16T15:17:29.739Z,7.28
2023-11-16T15:19:56.337Z,5.90
2023-11-16T15:22:23.223Z,6.13
2023-11-16T15:24:50.735Z,10.85
2023-11-16T15:27:17.281Z,5.85
2023-11-16T15:29:43.826Z,5.95
2023-11-16T15:32:19.997Z,7.18
2023-11-16T15:34:46.616Z,8.82
2023-11-16T15:37:13.275Z,8.25
2023-11-16T15:39:40.166Z,6.97
2023-11-16T15:42:08.074Z,6.18
2023-11-16T15:44:34.856Z,7.22
2023-11-16T15:47:01.638Z,4.95
2023-11-16T15:49:28.590Z,7.57
2023-11-16T15:51:55.256Z,8.05
2023-11-16T15:54:21.775Z,6.43
2023-11-16T15:56:52.501Z,8.70
2023-11-16T15:59:19.328Z,8.55
2023-11-16T16:01:46.445Z,8.57
2023-11-16T16:04:13.569Z,5.53
2023-11-16T16:06:40.509Z,9.30
2023-11-16T16:09:09.423Z,9.25
2023-11-16T16:11:36.283Z,7.57
2023-11-16T16:14:02.973Z,6.55
2023-11-16T16:16:32.644Z,6.25
2023-11-16T16:19:01.416Z,7.43
2023-11-16T16:21:28.362Z,5.20
2023-11-16T16:23:55.217Z,9.02
2023-11-16T16:26:22.033Z,6.50
2023-11-16T16:28:48.682Z,6.10
2023-11-16T16:31:19.877Z,6.95
2023-11-16T16:33:46.495Z,6.50
2023-11-16T16:36:13.044Z,6.10
2023-11-16T16:38:39.588Z,8.48
2023-11-16T16:41:12.118Z,8.50
2023-11-16T16:43:42.462Z,7.28
2023-11-16T16:46:22.246Z,7.00
2023-11-16T16:48:49.172Z,10.07
2023-11-16T16:51:15.816Z,15.40
2023-11-16T16:53:44.537Z,14.75
2023-11-16T16:56:13.878Z,12.48
2023-11-16T16:58:40.468Z,8.07
2023-11-16T17:01:07.367Z,7.40
2023-11-16T17:03:34.084Z,7.53
2023-11-16T17:06:00.922Z,8.60
2023-11-16T17:08:27.397Z,7.72
2023-11-16T17:13:20.457Z,8.90
2023-11-16T17:15:47.090Z,7.97
2023-11-16T17:18:14.275Z,8.80
2023-11-16T17:20:41.010Z,8.80
2023-11-16T17:23:10.188Z,6.50
2023-11-16T17:25:38.527Z,9.05
2023-11-16T17:28:07.162Z,8.55
2023-11-16T17:30:34.166Z,7.45
2023-11-16T17:33:01.073Z,10.82
2023-11-16T17:35:27.713Z,7.90
2023-11-16T17:37:54.815Z,7.70
2023-11-16T17:40:27.170Z,8.30
2023-11-16T17:42:54.174Z,8.05
2023-11-16T17:45:23.884Z,9.48
2023-11-16T17:47:51.603Z,7.30
2023-11-16T17:50:18.803Z,7.32
2023-11-16T17:52:45.432Z,9.32
2023-11-16T17:55:14.268Z,7.95
2023-11-16T17:57:41.721Z,7.78
2023-11-16T18:00:11.983Z,6.90
2023-11-16T18:02:42.252Z,6.88
2023-11-16T18:05:15.858Z,6.28
2023-11-16T18:07:43.279Z,7.15
2023-11-16T18:10:09.959Z,6.80
2023-11-16T18:12:38.716Z,7.60
2023-11-16T18:15:09.923Z,8.05
2023-11-16T18:17:36.591Z,6.90
2023-11-16T18:20:07.052Z,4.90
2023-11-16T18:22:34.037Z,10.07
2023-11-16T18:25:00.677Z,6.32
2023-11-16T18:27:27.829Z,6.20
2023-11-16T18:29:54.366Z,8.15
2023-11-16T18:32:20.889Z,4.75
2023-11-16T18:34:50.996Z,5.57
2023-11-16T18:37:17.624Z,6.18
2023-11-16T18:39:44.472Z,7.40
2023-11-16T18:42:11.344Z,10.00
2023-11-16T18:44:38.897Z,9.20
2023-11-16T18:47:06.868Z,8.15
2023-11-16T18:49:33.522Z,9.38
2023-11-16T18:52:02.137Z,7.78
2023-11-16T18:54:30.728Z,17.95
2023-11-16T18:56:59.339Z,8.88
2023-11-16T18:59:26.564Z,9.27
2023-11-16T19:01:54.298Z,6.68
2023-11-16T19:04:22.432Z,6.05
2023-11-16T19:06:52.011Z,8.07
2023-11-16T19:09:22.405Z,6.53
2023-11-16T19:11:50.797Z,7.57
2023-11-16T19:14:18.992Z,8.65
2023-11-16T19:16:46.606Z,8.25
2023-11-16T19:19:14.546Z,8.45
2023-11-16T19:21:43.417Z,7.28
2023-11-16T19:24:13.797Z,8.23
2023-11-16T19:26:42.272Z,13.00
2023-11-16T19:29:12.023Z,4.28
2023-11-16T19:31:38.766Z,6.40
2023-11-16T19:34:05.577Z,10.75
2023-11-16T19:36:32.270Z,13.52
2023-11-16T19:39:08.346Z,9.85
2023-11-16T19:41:43.197Z,6.57
2023-11-16T19:44:09.823Z,5.32
2023-11-16T19:46:36.381Z,5.07
2023-11-16T19:49:04.856Z,6.85
2023-11-16T19:51:35.668Z,4.88
2023-11-16T19:54:04.240Z,5.22
2023-11-16T19:56:30.937Z,5.35
2023-11-16T19:58:57.403Z,6.80
2023-11-16T20:03:52.815Z,5.07
2023-11-16T20:06:19.467Z,5.07
2023-11-16T20:08:46.547Z,6.38
2023-11-16T20:11:14.941Z,5.05
2023-11-16T20:13:41.707Z,6.35
2023-11-16T20:16:12.099Z,5.13
2023-11-16T20:18:40.472Z,6.65
2023-11-16T20:21:07.322Z,4.53
2023-11-16T20:23:35.763Z,7.68
2023-11-16T20:26:05.120Z,5.78
2023-11-16T20:28:32.166Z,7.28
2023-11-16T20:30:58.868Z,6.50
2023-11-16T20:33:25.520Z,5.20
2023-11-16T20:35:52.699Z,7.00
2023-11-16T20:38:19.183Z,6.65
2023-11-16T20:40:46.409Z,6.05
2023-11-16T20:43:13.024Z,5.63
2023-11-16T20:45:39.610Z,5.88
2023-11-16T20:48:06.323Z,7.10
2023-11-16T20:50:32.934Z,7.65
2023-11-16T20:53:00.039Z,5.25
2023-11-16T20:55:26.637Z,6.47
2023-11-16T21:00:21.016Z,7.93
2023-11-16T21:02:49.569Z,6.88
2023-11-16T21:05:16.801Z,6.28
2023-11-16T21:07:44.025Z,5.63
2023-11-16T21:10:12.823Z,5.07
2023-11-16T21:12:40.128Z,7.20
2023-11-16T21:15:07.533Z,6.35
2023-11-16T21:17:35.142Z,7.93
2023-11-16T21:20:06.222Z,7.05
2023-11-16T21:22:32.839Z,6.68
2023-11-16T21:25:00.326Z,4.97
2023-11-16T21:27:27.773Z,6.85
2023-11-16T21:29:54.351Z,7.03
2023-11-16T21:32:22.165Z,7.25
2023-11-16T21:34:49.798Z,8.18
2023-11-16T21:37:16.417Z,7.60
2023-11-16T21:39:43.695Z,7.90
2023-11-16T21:42:11.021Z,9.27
2023-11-16T21:44:37.590Z,9.50
2023-11-16T21:47:04.613Z,6.82
2023-11-16T21:49:31.290Z,10.07
2023-11-16T21:51:59.071Z,8.60
2023-11-16T21:54:27.182Z,7.25
2023-11-16T21:56:54.987Z,7.97
2023-11-16T21:59:21.641Z,6.90
2023-11-16T22:01:49.756Z,10.13
2023-11-16T22:04:19.892Z,8.35
2023-11-16T22:06:46.823Z,8.18
2023-11-16T22:09:14.100Z,9.10
2023-11-16T22:11:40.950Z,9.25
2023-11-16T22:14:11.140Z,12.00
2023-11-16T22:16:38.669Z,10.27
2023-11-16T22:19:05.827Z,9.77
2023-11-16T22:21:34.855Z,12.05
2023-11-16T22:24:01.473Z,8.75
2023-11-16T22:28:56.968Z,9.63
2023-11-16T22:33:50.727Z,9.32
2023-11-16T22:36:18.064Z,8.05
2023-11-16T22:38:45.048Z,9.25
2023-11-16T22:41:13.145Z,8.95
2023-11-16T22:43:40.632Z,10.18
2023-11-16T22:46:08.334Z,8.95
2023-11-16T22:48:37.945Z,7.88
2023-11-16T22:51:07.507Z,6.88
2023-11-16T22:53:34.946Z,8.32
2023-11-16T22:56:01.565Z,7.50
2023-11-16T22:58:30.596Z,8.13
2023-11-16T23:01:00.311Z,8.48
2023-11-16T23:03:27.679Z,6.32
2023-11-16T23:05:54.312Z,8.40
2023-11-16T23:10:50.457Z,9.50
2023-11-16T23:13:20.483Z,9.63
2023-11-16T23:15:47.746Z,8.05
2023-11-16T23:18:14.734Z,8.82
2023-11-16T23:20:42.542Z,8.57
2023-11-16T23:23:12.608Z,8.85
2023-11-16T23:25:42.276Z,8.15
2023-11-16T23:28:11.635Z,9.88
2023-11-16T23:30:40.753Z,8.27
2023-11-16T23:33:09.412Z,8.07
2023-11-16T23:35:36.710Z,10.05
2023-11-16T23:38:03.268Z,7.32
2023-11-16T23:40:29.814Z,9.57
2023-11-16T23:45:25.107Z,10.23
2023-11-16T23:47:51.946Z,10.18
2023-11-16T23:50:18.599Z,7.53
2023-11-16T23:52:45.118Z,7.10
2023-11-16T23:57:40.102Z,8.18
